createdAt,value
2018-02-21T00:00:03.389Z,88.20
2018-02-21T00:02:31.631Z,89.20
2018-02-21T00:04:59.087Z,81.17
2018-02-21T00:07:26.573Z,87.63
2018-02-21T00:09:54.123Z,94.77
2018-02-21T00:12:21.615Z,92.13
2018-02-21T00:14:49.866Z,92.90
2018-02-21T00:17:17.330Z,77.30
2018-02-21T00:19:44.786Z,90.53
2018-02-21T00:22:13.166Z,88.17
2018-02-21T00:24:40.630Z,85.20
2018-02-21T00:27:08.851Z,88.97
2018-02-21T00:29:36.315Z,90.40
2018-02-21T00:32:03.791Z,92.03
2018-02-21T00:34:31.266Z,90.87
2018-02-21T00:36:58.708Z,86.70
2018-02-21T00:39:26.211Z,82.53
2018-02-21T00:41:54.439Z,76.10
2018-02-21T00:44:22.045Z,75.33
2018-02-21T00:46:50.252Z,83.10
2018-02-21T00:49:17.764Z,84.03
2018-02-21T00:51:45.227Z,85.60
2018-02-21T00:54:13.486Z,90.50
2018-02-21T00:56:40.942Z,78.50
2018-02-21T00:59:08.427Z,83.10
2018-02-21T01:01:36.678Z,91.67
2018-02-21T01:04:04.143Z,86.17
2018-02-21T01:06:31.631Z,84.80
2018-02-21T01:08:59.211Z,80.80
2018-02-21T01:11:26.701Z,82.27
2018-02-21T01:13:54.203Z,84.93
2018-02-21T01:16:22.403Z,85.73
2018-02-21T01:18:49.862Z,88.70
2018-02-21T01:21:17.355Z,80.83
2018-02-21T01:23:44.846Z,85.30
2018-02-21T01:26:12.302Z,81.97
2018-02-21T01:28:40.594Z,85.70
2018-02-21T01:31:08.811Z,87.50
2018-02-21T01:33:36.296Z,82.17
2018-02-21T01:36:03.767Z,82.97
2018-02-21T01:38:31.218Z,93.27
2018-02-21T01:40:58.681Z,83.90
2018-02-21T01:43:26.935Z,94.50
2018-02-21T01:45:54.415Z,92.30
2018-02-21T01:48:21.866Z,88.07
2018-02-21T01:50:52.485Z,84.57
2018-02-21T01:53:19.946Z,97.27
2018-02-21T01:55:47.417Z,86.27
2018-02-21T01:58:14.854Z,85.43
2018-02-21T02:00:42.325Z,97.47
2018-02-21T02:03:09.787Z,86.70
2018-02-21T02:05:37.240Z,100.20
2018-02-21T02:08:04.703Z,98.03
2018-02-21T02:10:32.150Z,91.63
2018-02-21T02:12:59.618Z,96.93
2018-02-21T02:15:27.075Z,106.00
2018-02-21T02:17:54.535Z,89.97
2018-02-21T02:20:21.991Z,89.33
2018-02-21T02:22:49.521Z,96.03
2018-02-21T02:25:16.995Z,98.70
2018-02-21T02:27:44.467Z,99.03
2018-02-21T02:30:12.010Z,100.23
2018-02-21T02:32:39.480Z,100.33
2018-02-21T02:35:07.062Z,101.27
2018-02-21T02:37:35.339Z,103.80
2018-02-21T02:40:02.793Z,95.50
2018-02-21T02:42:31.069Z,91.07
2018-02-21T02:44:58.582Z,88.87
2018-02-21T02:47:26.058Z,104.60
2018-02-21T02:49:53.536Z,106.27
2018-02-21T02:52:21.000Z,102.87
2018-02-21T02:54:48.483Z,111.63
2018-02-21T02:57:16.719Z,103.00
2018-02-21T02:59:44.212Z,99.13
2018-02-21T03:02:12.578Z,99.00
2018-02-21T03:04:40.854Z,108.23
2018-02-21T03:07:08.359Z,98.50
2018-02-21T03:09:35.851Z,104.93
2018-02-21T03:12:04.171Z,110.97
2018-02-21T03:14:32.399Z,103.80
2018-02-21T03:16:59.862Z,105.37
2018-02-21T03:19:27.346Z,108.63
2018-02-21T03:21:54.787Z,109.37
2018-02-21T03:24:22.265Z,118.07
2018-02-21T03:26:50.535Z,105.70
2018-02-21T03:29:18.003Z,110.87
2018-02-21T03:31:46.266Z,108.37
2018-02-21T03:34:13.720Z,107.67
2018-02-21T03:36:41.183Z,119.00
2018-02-21T03:39:09.567Z,118.30
2018-02-21T03:41:37.850Z,112.70
2018-02-21T03:44:06.114Z,108.40
2018-02-21T03:46:33.574Z,121.83
2018-02-21T03:49:01.114Z,125.07
2018-02-21T03:51:29.878Z,119.70
2018-02-21T03:53:57.377Z,113.23
2018-02-21T03:56:24.834Z,109.93
2018-02-21T03:58:52.842Z,121.53
2018-02-21T04:01:20.323Z,116.60
2018-02-21T04:03:47.776Z,121.00
2018-02-21T04:06:15.267Z,119.00
2018-02-21T04:08:42.729Z,118.60
2018-02-21T04:11:10.202Z,123.37
2018-02-21T04:13:37.659Z,116.17
2018-02-21T04:16:05.164Z,122.10
2018-02-21T04:18:32.653Z,130.67
2018-02-21T04:21:00.119Z,114.40
2018-02-21T04:23:27.590Z,113.53
2018-02-21T04:25:55.038Z,118.90
2018-02-21T04:28:22.491Z,117.63
2018-02-21T04:30:49.972Z,117.47
2018-02-21T04:33:18.217Z,122.00
2018-02-21T04:35:45.683Z,120.43
2018-02-21T04:38:13.168Z,135.27
2018-02-21T04:40:40.631Z,119.27
2018-02-21T04:43:08.856Z,127.70
2018-02-21T04:45:36.340Z,124.27
2018-02-21T04:48:03.792Z,134.00
2018-02-21T04:50:31.242Z,127.37
2018-02-21T04:52:58.711Z,122.27
2018-02-21T04:55:31.711Z,133.30
2018-02-21T04:58:02.738Z,130.37
2018-02-21T05:00:30.215Z,133.03
2018-02-21T05:02:57.675Z,145.43
2018-02-21T05:05:25.283Z,139.83
2018-02-21T05:07:52.758Z,132.23
2018-02-21T05:10:20.235Z,131.57
2018-02-21T05:12:47.698Z,130.10
2018-02-21T05:15:15.162Z,138.37
2018-02-21T05:17:42.633Z,131.70
2018-02-21T05:20:10.864Z,136.67
2018-02-21T05:22:38.328Z,130.90
2018-02-21T05:25:05.815Z,152.57
2018-02-21T05:27:33.286Z,140.20
2018-02-21T05:30:01.559Z,129.93
2018-02-21T05:32:29.038Z,141.63
2018-02-21T05:34:57.286Z,136.50
2018-02-21T05:37:24.747Z,150.20
2018-02-21T05:39:52.210Z,133.13
2018-02-21T05:42:19.708Z,134.27
2018-02-21T05:44:47.151Z,134.20
2018-02-21T05:47:14.656Z,148.20
2018-02-21T05:49:42.135Z,139.43
2018-02-21T05:52:09.628Z,145.83
2018-02-21T05:54:37.136Z,149.93
2018-02-21T05:57:04.587Z,147.23
2018-02-21T05:59:32.042Z,147.20
2018-02-21T06:01:59.515Z,140.40
2018-02-21T06:04:27.007Z,144.70
2018-02-21T06:06:55.242Z,143.13
2018-02-21T06:09:22.708Z,153.07
2018-02-21T06:11:50.212Z,145.03
2018-02-21T06:14:18.455Z,146.83
2018-02-21T06:16:45.928Z,138.33
2018-02-21T06:19:14.176Z,143.73
2018-02-21T06:21:41.638Z,139.97
2018-02-21T06:24:09.095Z,139.20
2018-02-21T06:26:36.681Z,142.57
2018-02-21T06:29:04.163Z,140.17
2018-02-21T06:31:32.365Z,148.60
2018-02-21T06:33:59.847Z,144.10
2018-02-21T06:36:27.306Z,126.73
2018-02-21T06:38:54.776Z,134.33
2018-02-21T06:41:22.245Z,136.10
2018-02-21T06:43:49.761Z,148.37
2018-02-21T06:46:17.947Z,128.73
2018-02-21T06:48:45.432Z,139.93
2018-02-21T06:51:12.955Z,144.77
2018-02-21T06:53:40.403Z,149.53
2018-02-21T06:56:07.963Z,151.70
2018-02-21T06:58:35.418Z,141.93
2018-02-21T07:01:02.887Z,139.67
2018-02-21T07:03:30.333Z,135.07
2018-02-21T07:05:57.800Z,141.00
2018-02-21T07:08:25.286Z,139.40
2018-02-21T07:10:52.771Z,136.00
2018-02-21T07:13:21.007Z,137.23
2018-02-21T07:15:48.680Z,134.43
2018-02-21T07:18:16.125Z,133.63
2018-02-21T07:20:43.631Z,128.63
2018-02-21T07:23:11.879Z,137.30
2018-02-21T07:25:39.358Z,137.20
2018-02-21T07:28:07.600Z,122.43
2018-02-21T07:30:35.171Z,121.23
2018-02-21T07:33:02.646Z,126.83
2018-02-21T07:35:30.895Z,139.90
2018-02-21T07:37:58.374Z,116.40
2018-02-21T07:40:25.831Z,128.07
2018-02-21T07:42:53.306Z,118.97
2018-02-21T07:45:21.535Z,120.37
2018-02-21T07:47:49.025Z,115.27
2018-02-21T07:50:16.484Z,115.43
2018-02-21T07:52:43.943Z,123.90
2018-02-21T07:55:11.412Z,126.50
2018-02-21T07:57:39.672Z,124.80
2018-02-21T08:00:07.126Z,123.77
2018-02-21T08:02:34.702Z,112.90
2018-02-21T08:05:02.176Z,109.73
2018-02-21T08:07:30.424Z,114.83
2018-02-21T08:09:57.904Z,118.63
2018-02-21T08:12:25.351Z,104.43
2018-02-21T08:14:52.934Z,108.43
2018-02-21T08:17:21.192Z,103.77
2018-02-21T08:19:48.701Z,113.00
2018-02-21T08:22:16.187Z,112.83
2018-02-21T08:24:43.666Z,116.23
2018-02-21T08:27:11.136Z,118.90
2018-02-21T08:29:39.379Z,104.73
2018-02-21T08:32:06.859Z,104.80
2018-02-21T08:34:34.339Z,111.83
2018-02-21T08:37:01.851Z,102.97
2018-02-21T08:39:29.336Z,97.10
2018-02-21T08:41:57.203Z,111.97
2018-02-21T08:44:24.677Z,100.40
2018-02-21T08:46:53.024Z,104.17
2018-02-21T08:49:20.529Z,97.97
2018-02-21T08:51:47.983Z,103.80
2018-02-21T08:54:16.235Z,92.57
2018-02-21T08:56:44.523Z,100.03
2018-02-21T08:59:12.897Z,101.87
2018-02-21T09:01:40.387Z,93.93
2018-02-21T09:04:08.627Z,88.00
2018-02-21T09:06:36.095Z,98.90
2018-02-21T09:09:04.427Z,97.30
2018-02-21T09:11:31.891Z,105.93
2018-02-21T09:13:59.362Z,94.67
2018-02-21T09:16:27.739Z,93.77
2018-02-21T09:18:55.203Z,89.03
2018-02-21T09:21:22.719Z,87.87
2018-02-21T09:23:50.143Z,93.70
2018-02-21T09:26:17.799Z,92.63
2018-02-21T09:28:45.246Z,91.40
2018-02-21T09:31:12.713Z,94.60
2018-02-21T09:33:40.177Z,81.37
2018-02-21T09:36:07.649Z,86.27
2018-02-21T09:38:35.907Z,82.23
2018-02-21T09:41:03.341Z,83.57
2018-02-21T09:43:30.818Z,88.40
2018-02-21T09:45:58.283Z,87.17
2018-02-21T09:48:25.839Z,84.33
2018-02-21T09:50:53.513Z,84.17
2018-02-21T09:53:21.135Z,80.17
2018-02-21T09:55:48.592Z,88.33
2018-02-21T09:58:16.265Z,78.40
2018-02-21T10:00:43.872Z,82.73
2018-02-21T10:03:12.096Z,76.17
2018-02-21T10:05:39.551Z,81.47
2018-02-21T10:08:07.028Z,77.87
2018-02-21T10:10:34.495Z,78.13
2018-02-21T10:13:02.085Z,72.37
2018-02-21T10:15:30.311Z,71.33
2018-02-21T10:17:57.767Z,72.67
2018-02-21T10:20:25.991Z,76.57
2018-02-21T10:22:54.212Z,82.47
2018-02-21T10:25:21.688Z,87.03
2018-02-21T10:27:49.135Z,72.93
2018-02-21T10:30:16.640Z,77.40
2018-02-21T10:32:44.883Z,65.73
2018-02-21T10:35:12.379Z,70.37
2018-02-21T10:37:40.954Z,65.90
2018-02-21T10:40:09.176Z,62.37
2018-02-21T10:42:36.636Z,60.77
2018-02-21T10:45:04.117Z,62.80
2018-02-21T10:47:31.635Z,64.73
2018-02-21T10:49:59.135Z,63.53
2018-02-21T10:52:26.662Z,61.90
2018-02-21T10:54:54.222Z,52.80
2018-02-21T10:57:21.675Z,61.83
2018-02-21T10:59:49.171Z,52.97
2018-02-21T11:02:16.656Z,52.73
2018-02-21T11:04:44.894Z,60.43
2018-02-21T11:07:12.405Z,58.00
2018-02-21T11:09:40.616Z,50.03
2018-02-21T11:12:08.112Z,61.77
2018-02-21T11:14:35.582Z,55.73
2018-02-21T11:17:03.055Z,58.40
2018-02-21T11:19:31.282Z,53.20
2018-02-21T11:21:58.774Z,57.43
2018-02-21T11:24:26.232Z,55.93
2018-02-21T11:26:54.503Z,55.40
2018-02-21T11:29:22.011Z,60.20
2018-02-21T11:31:49.486Z,63.17
2018-02-21T11:34:16.985Z,49.70
2018-02-21T11:36:44.445Z,53.50
2018-02-21T11:39:12.103Z,52.37
2018-02-21T11:41:39.548Z,55.53
2018-02-21T11:44:07.015Z,59.87
2018-02-21T11:46:34.474Z,50.87
2018-02-21T11:49:01.954Z,51.83
2018-02-21T11:51:30.188Z,55.67
2018-02-21T11:53:57.655Z,52.40
2018-02-21T11:56:25.104Z,49.13
2018-02-21T11:58:52.571Z,51.03
2018-02-21T12:01:20.047Z,53.50
2018-02-21T12:03:47.496Z,53.73
2018-02-21T12:06:15.067Z,51.43
2018-02-21T12:08:42.505Z,45.80
2018-02-21T12:11:10.085Z,49.63
2018-02-21T12:13:38.586Z,44.37
2018-02-21T12:16:06.870Z,49.20
2018-02-21T12:18:35.173Z,53.57
2018-02-21T12:21:02.644Z,52.13
2018-02-21T12:23:30.132Z,53.30
2018-02-21T12:25:57.605Z,46.20
2018-02-21T12:28:25.943Z,52.70
2018-02-21T12:30:53.494Z,48.13
2018-02-21T12:33:20.951Z,48.50
2018-02-21T12:35:48.428Z,48.80
2018-02-21T12:38:16.084Z,51.23
2018-02-21T12:40:49.083Z,48.80
2018-02-21T12:43:16.534Z,46.40
2018-02-21T12:45:44.010Z,53.00
2018-02-21T12:48:11.627Z,47.33
2018-02-21T12:50:39.091Z,41.20
2018-02-21T12:53:06.587Z,49.90
2018-02-21T12:55:34.047Z,45.10
2018-02-21T12:58:01.508Z,52.50
2018-02-21T13:00:28.962Z,48.60
2018-02-21T13:02:56.443Z,52.60
2018-02-21T13:05:24.662Z,52.80
2018-02-21T13:07:52.130Z,55.60
2018-02-21T13:10:19.631Z,49.83
2018-02-21T13:12:47.911Z,48.47
2018-02-21T13:15:16.154Z,51.60
2018-02-21T13:17:43.640Z,49.30
2018-02-21T13:20:11.878Z,55.87
2018-02-21T13:22:39.346Z,57.20
2018-02-21T13:25:06.833Z,51.47
2018-02-21T13:27:35.067Z,50.27
2018-02-21T13:30:02.543Z,46.33
2018-02-21T13:32:30.195Z,50.30
2018-02-21T13:34:57.679Z,53.60
2018-02-21T13:37:25.948Z,56.00
2018-02-21T13:39:53.466Z,52.93
2018-02-21T13:42:20.947Z,56.23
2018-02-21T13:44:48.480Z,58.77
2018-02-21T13:47:15.976Z,61.60
2018-02-21T13:49:43.459Z,58.10
2018-02-21T13:52:11.226Z,55.00
2018-02-21T13:54:39.472Z,59.33
2018-02-21T13:57:06.946Z,62.10
2018-02-21T13:59:34.403Z,60.63
2018-02-21T14:02:01.919Z,55.10
2018-02-21T14:04:29.582Z,54.23
2018-02-21T14:06:57.036Z,61.77
2018-02-21T14:09:24.531Z,53.93
2018-02-21T14:11:52.055Z,59.47
2018-02-21T14:14:19.556Z,57.33
2018-02-21T14:16:46.999Z,64.83
2018-02-21T14:19:14.450Z,57.03
2018-02-21T14:21:42.923Z,59.40
2018-02-21T14:24:10.406Z,62.00
2018-02-21T14:26:37.904Z,61.57
2018-02-21T14:29:06.128Z,59.93
2018-02-21T14:31:33.663Z,64.93
2018-02-21T14:34:01.189Z,60.70
2018-02-21T14:36:29.418Z,58.23
2018-02-21T14:38:56.891Z,55.40
2018-02-21T14:41:24.355Z,59.50
2018-02-21T14:43:51.807Z,56.17
2018-02-21T14:46:19.550Z,58.90
2018-02-21T14:48:46.999Z,58.70
2018-02-21T14:51:14.482Z,52.40
2018-02-21T14:53:41.996Z,55.03
2018-02-21T14:56:09.438Z,59.90
2018-02-21T14:58:37.663Z,65.53
2018-02-21T15:01:05.113Z,56.80
2018-02-21T15:03:32.587Z,58.57
2018-02-21T15:06:00.052Z,57.80
2018-02-21T15:08:27.521Z,53.97
2018-02-21T15:10:55.010Z,52.00
2018-02-21T15:13:23.234Z,56.73
2018-02-21T15:15:50.739Z,53.90
2018-02-21T15:18:19.023Z,51.27
2018-02-21T15:20:47.250Z,51.17
2018-02-21T15:23:14.758Z,56.37
2018-02-21T15:25:43.023Z,52.13
2018-02-21T15:28:11.250Z,52.83
2018-02-21T15:30:39.060Z,52.70
2018-02-21T15:33:06.508Z,55.33
2018-02-21T15:35:33.985Z,50.03
2018-02-21T15:38:02.464Z,48.23
2018-02-21T15:40:29.947Z,52.10
2018-02-21T15:42:57.419Z,48.67
2018-02-21T15:45:24.865Z,49.03
2018-02-21T15:47:52.314Z,50.00
2018-02-21T15:50:20.522Z,47.07
2018-02-21T15:52:47.991Z,48.23
2018-02-21T15:55:15.467Z,50.90
2018-02-21T15:57:42.937Z,41.57
2018-02-21T16:00:10.782Z,45.93
2018-02-21T16:02:38.275Z,45.10
2018-02-21T16:05:06.490Z,48.43
2018-02-21T16:07:34.035Z,49.13
2018-02-21T16:10:02.284Z,54.33
2018-02-21T16:12:29.847Z,53.27
2018-02-21T16:14:57.305Z,48.60
2018-02-21T16:17:24.756Z,45.83
2018-02-21T16:19:52.232Z,48.33
2018-02-21T16:22:20.504Z,55.33
2018-02-21T16:24:48.759Z,47.43
2018-02-21T16:27:16.220Z,51.60
2018-02-21T16:29:44.506Z,50.33
2018-02-21T16:32:11.966Z,48.83
2018-02-21T16:34:39.446Z,53.73
2018-02-21T16:37:06.988Z,54.97
2018-02-21T16:39:34.444Z,48.23
2018-02-21T16:42:02.693Z,56.27
2018-02-21T16:44:30.178Z,46.50
2018-02-21T16:46:57.723Z,52.60
2018-02-21T16:49:26.741Z,49.77
2018-02-21T16:51:54.203Z,51.17
2018-02-21T16:54:22.467Z,51.47
2018-02-21T16:56:50.719Z,52.00
2018-02-21T16:59:18.214Z,55.60
2018-02-21T17:01:46.462Z,54.60
2018-02-21T17:04:13.940Z,50.07
2018-02-21T17:06:41.406Z,50.57
2018-02-21T17:09:09.640Z,50.93
2018-02-21T17:11:37.123Z,51.00
2018-02-21T17:14:04.716Z,59.47
2018-02-21T17:16:32.975Z,48.60
2018-02-21T17:19:01.224Z,51.77
2018-02-21T17:21:28.695Z,46.17
2018-02-21T17:23:56.254Z,54.13
2018-02-21T17:26:23.712Z,49.30
2018-02-21T17:28:51.171Z,49.83
2018-02-21T17:31:18.635Z,50.47
2018-02-21T17:33:46.875Z,49.07
2018-02-21T17:36:14.374Z,45.37
2018-02-21T17:38:41.827Z,53.43
2018-02-21T17:41:15.011Z,57.07
2018-02-21T17:43:42.526Z,50.47
2018-02-21T17:46:10.031Z,50.50
2018-02-21T17:48:37.498Z,48.77
2018-02-21T17:51:04.987Z,50.07
2018-02-21T17:53:32.973Z,54.90
2018-02-21T17:56:00.432Z,50.40
2018-02-21T17:58:28.016Z,57.43
2018-02-21T18:00:55.522Z,54.23
2018-02-21T18:03:23.776Z,50.07
2018-02-21T18:05:51.262Z,56.80
2018-02-21T18:08:19.517Z,50.40
2018-02-21T18:10:47.943Z,52.73
2018-02-21T18:13:15.402Z,49.63
2018-02-21T18:15:42.906Z,51.40
2018-02-21T18:18:10.380Z,46.23
2018-02-21T18:20:38.623Z,51.03
2018-02-21T18:23:06.203Z,48.13
2018-02-21T18:25:33.559Z,50.37
2018-02-21T18:28:01.098Z,48.47
2018-02-21T18:30:28.531Z,51.27
2018-02-21T18:32:55.995Z,55.10
2018-02-21T18:35:23.466Z,50.93
2018-02-21T18:37:51.003Z,53.00
2018-02-21T18:40:18.821Z,52.20
2018-02-21T18:42:46.368Z,50.17
2018-02-21T18:45:14.953Z,56.37
2018-02-21T18:47:42.542Z,49.50
2018-02-21T18:50:10.782Z,52.37
2018-02-21T18:52:38.271Z,48.40
2018-02-21T18:55:06.642Z,49.13
2018-02-21T18:57:34.099Z,51.63
2018-02-21T19:00:01.658Z,49.30
2018-02-21T19:02:29.182Z,41.93
2018-02-21T19:04:56.780Z,43.17
2018-02-21T19:07:24.421Z,43.77
2018-02-21T19:09:51.930Z,46.73
2018-02-21T19:12:20.154Z,43.47
2018-02-21T19:14:47.691Z,43.13
2018-02-21T19:17:15.210Z,45.13
2018-02-21T19:19:43.533Z,43.47
2018-02-21T19:22:11.020Z,38.60
2018-02-21T19:24:38.493Z,41.03
2018-02-21T19:27:06.104Z,39.60
2018-02-21T19:29:33.543Z,35.43
2018-02-21T19:32:01.119Z,42.10
2018-02-21T19:34:28.606Z,36.20
2018-02-21T19:36:56.066Z,43.07
2018-02-21T19:39:23.531Z,40.70
2018-02-21T19:41:50.992Z,34.43
2018-02-21T19:44:18.496Z,35.07
2018-02-21T19:46:46.412Z,41.17
2018-02-21T19:49:13.981Z,36.10
2018-02-21T19:51:41.415Z,38.00
2018-02-21T19:54:09.021Z,43.73
2018-02-21T19:56:36.527Z,40.90
2018-02-21T19:59:04.015Z,40.90
2018-02-21T20:01:31.579Z,41.03
2018-02-21T20:03:59.349Z,43.70
2018-02-21T20:06:26.819Z,39.90
2018-02-21T20:08:54.287Z,47.53
2018-02-21T20:11:22.526Z,43.10
2018-02-21T20:13:50.023Z,39.67
2018-02-21T20:16:17.595Z,46.23
2018-02-21T20:18:45.867Z,40.63
2018-02-21T20:21:14.107Z,38.07
2018-02-21T20:23:41.586Z,45.47
2018-02-21T20:26:09.058Z,43.47
2018-02-21T20:28:37.330Z,39.27
2018-02-21T20:31:05.607Z,39.57
2018-02-21T20:33:33.873Z,45.23
2018-02-21T20:36:01.359Z,42.10
2018-02-21T20:38:29.616Z,35.77
2018-02-21T20:40:57.239Z,47.23
2018-02-21T20:43:24.712Z,38.73
2018-02-21T20:45:52.207Z,40.13
2018-02-21T20:48:20.463Z,44.07
2018-02-21T20:50:47.950Z,39.50
2018-02-21T20:53:16.174Z,41.97
2018-02-21T20:55:43.649Z,36.07
2018-02-21T20:58:11.111Z,39.67
2018-02-21T21:00:38.588Z,43.77
2018-02-21T21:03:06.836Z,37.30
2018-02-21T21:05:34.309Z,52.83
2018-02-21T21:08:01.756Z,46.43
2018-02-21T21:10:29.222Z,42.80
2018-02-21T21:12:56.684Z,42.17
2018-02-21T21:15:24.140Z,40.23
2018-02-21T21:17:51.608Z,44.20
2018-02-21T21:20:19.904Z,38.17
2018-02-21T21:22:48.130Z,38.30
2018-02-21T21:25:15.607Z,41.97
2018-02-21T21:27:43.064Z,41.80
2018-02-21T21:30:10.523Z,49.10
2018-02-21T21:32:38.064Z,42.30
2018-02-21T21:35:05.572Z,44.47
2018-02-21T21:37:33.822Z,41.50
2018-02-21T21:40:03.043Z,42.27
2018-02-21T21:42:31.266Z,41.97
2018-02-21T21:44:58.761Z,45.23
2018-02-21T21:47:27.003Z,45.07
2018-02-21T21:49:54.478Z,43.40
2018-02-21T21:52:21.948Z,43.40
2018-02-21T21:54:49.468Z,46.00
2018-02-21T21:57:16.918Z,44.67
2018-02-21T21:59:44.384Z,45.43
2018-02-21T22:02:11.857Z,45.63
2018-02-21T22:04:39.345Z,46.50
2018-02-21T22:07:07.628Z,36.17
2018-02-21T22:09:35.845Z,44.67
2018-02-21T22:12:03.330Z,41.10
2018-02-21T22:14:30.793Z,41.80
2018-02-21T22:16:58.247Z,45.83
2018-02-21T22:19:25.728Z,43.33
2018-02-21T22:21:53.189Z,40.70
2018-02-21T22:24:20.651Z,44.03
2018-02-21T22:26:48.870Z,41.87
2018-02-21T22:29:16.392Z,41.20
2018-02-21T22:31:44.608Z,42.43
2018-02-21T22:34:12.059Z,38.77
2018-02-21T22:36:39.519Z,40.60
2018-02-21T22:39:06.976Z,41.83
2018-02-21T22:41:34.451Z,44.53
2018-02-21T22:44:01.904Z,43.50
2018-02-21T22:46:29.370Z,43.67
2018-02-21T22:48:56.822Z,41.20
2018-02-21T22:51:24.277Z,39.77
2018-02-21T22:53:52.154Z,45.77
2018-02-21T22:56:19.626Z,43.27
2018-02-21T22:58:47.086Z,41.93
2018-02-21T23:01:14.559Z,42.00
2018-02-21T23:03:42.072Z,42.50
2018-02-21T23:06:09.642Z,39.53
2018-02-21T23:08:37.099Z,43.87
2018-02-21T23:11:04.552Z,43.57
2018-02-21T23:13:32.145Z,41.87
2018-02-21T23:15:59.588Z,43.47
2018-02-21T23:18:27.054Z,43.60
2018-02-21T23:20:54.492Z,42.03
2018-02-21T23:23:21.994Z,50.50
2018-02-21T23:25:49.431Z,44.33
2018-02-21T23:28:16.893Z,46.33
2018-02-21T23:30:44.373Z,44.90
2018-02-21T23:33:11.818Z,38.90
2018-02-21T23:35:39.299Z,47.87
2018-02-21T23:38:07.531Z,46.47
2018-02-21T23:40:35.284Z,46.90
2018-02-21T23:43:02.740Z,45.53
2018-02-21T23:45:30.248Z,46.80
2018-02-21T23:47:57.752Z,43.70
2018-02-21T23:50:25.235Z,47.67
2018-02-21T23:52:52.691Z,43.23
2018-02-21T23:55:20.159Z,37.87
2018-02-21T23:57:47.694Z,41.57
